sensor_id;sensor_type;location;lat;lon;timestamp;pressure;altitude;pressure_sealevel;temperature;humidity
50550;BME280;36505;52.512;13.460;2023-03-13T00:01:48;100113.16;;;5.72;94.25
50550;BME280;36505;52.512;13.460;2023-03-13T00:04:14;100115.28;;;5.70;94.12
50550;BME280;36505;52.512;13.460;2023-03-13T00:06:39;100116.47;;;5.74;94.20
50550;BME280;36505;52.512;13.460;2023-03-13T00:09:07;100116.03;;;5.77;94.48
50550;BME280;36505;52.512;13.460;2023-03-13T00:11:33;100109.16;;;5.75;94.11
50550;BME280;36505;52.512;13.460;2023-03-13T00:14:01;100119.78;;;5.76;94.36
50550;BME280;36505;52.512;13.460;2023-03-13T00:16:27;100113.91;;;5.79;94.37
50550;BME280;36505;52.512;13.460;2023-03-13T00:18:54;100111.78;;;5.81;94.28
50550;BME280;36505;52.512;13.460;2023-03-13T00:21:23;100107.78;;;5.84;94.09
50550;BME280;36505;52.512;13.460;2023-03-13T00:23:49;100101.69;;;5.88;94.15
50550;BME280;36505;52.512;13.460;2023-03-13T00:26:17;100105.84;;;5.91;94.04
50550;BME280;36505;52.512;13.460;2023-03-13T00:28:43;100101.03;;;5.93;94.22
50550;BME280;36505;52.512;13.460;2023-03-13T00:33:37;100098.06;;;5.94;94.31
50550;BME280;36505;52.512;13.460;2023-03-13T00:36:07;100096.41;;;5.93;94.63
50550;BME280;36505;52.512;13.460;2023-03-13T00:38:33;100088.84;;;5.95;94.52
50550;BME280;36505;52.512;13.460;2023-03-13T00:41:00;100093.00;;;5.98;94.64
50550;BME280;36505;52.512;13.460;2023-03-13T00:43:26;100092.78;;;6.00;94.51
50550;BME280;36505;52.512;13.460;2023-03-13T00:45:52;100083.09;;;6.04;94.89
50550;BME280;36505;52.512;13.460;2023-03-13T00:48:17;100079.94;;;6.07;94.81
50550;BME280;36505;52.512;13.460;2023-03-13T00:50:42;100073.88;;;6.05;95.03
50550;BME280;36505;52.512;13.460;2023-03-13T00:53:08;100074.72;;;6.05;95.14
50550;BME280;36505;52.512;13.460;2023-03-13T00:55:33;100074.50;;;6.07;95.46
50550;BME280;36505;52.512;13.460;2023-03-13T00:57:58;100067.75;;;6.09;95.17
50550;BME280;36505;52.512;13.460;2023-03-13T01:00:24;100068.56;;;6.10;95.07
50550;BME280;36505;52.512;13.460;2023-03-13T01:02:49;100064.78;;;6.11;95.08
50550;BME280;36505;52.512;13.460;2023-03-13T01:05:15;100066.25;;;6.13;95.25
50550;BME280;36505;52.512;13.460;2023-03-13T01:07:40;100062.44;;;6.14;95.44
50550;BME280;36505;52.512;13.460;2023-03-13T01:10:06;100055.94;;;6.15;95.25
50550;BME280;36505;52.512;13.460;2023-03-13T01:12:31;100060.31;;;6.16;94.91
50550;BME280;36505;52.512;13.460;2023-03-13T01:14:57;100061.97;;;6.17;95.17
50550;BME280;36505;52.512;13.460;2023-03-13T01:17:22;100063.63;;;6.18;95.11
50550;BME280;36505;52.512;13.460;2023-03-13T01:19:47;100052.78;;;6.18;95.11
50550;BME280;36505;52.512;13.460;2023-03-13T01:22:14;100050.66;;;6.20;94.70
50550;BME280;36505;52.512;13.460;2023-03-13T01:24:39;100057.72;;;6.21;95.14
50550;BME280;36505;52.512;13.460;2023-03-13T01:27:04;100053.13;;;6.22;95.16
50550;BME280;36505;52.512;13.460;2023-03-13T01:29:30;100051.94;;;6.18;94.87
50550;BME280;36505;52.512;13.460;2023-03-13T01:31:55;100043.66;;;6.13;95.28
50550;BME280;36505;52.512;13.460;2023-03-13T01:34:20;100063.53;;;6.25;94.81
50550;BME280;36505;52.512;13.460;2023-03-13T01:36:46;100056.94;;;6.21;94.62
50550;BME280;36505;52.512;13.460;2023-03-13T01:39:15;100061.44;;;6.27;94.68
50550;BME280;36505;52.512;13.460;2023-03-13T01:41:41;100059.53;;;6.27;94.62
50550;BME280;36505;52.512;13.460;2023-03-13T01:44:20;100060.13;;;6.29;94.36
50550;BME280;36505;52.512;13.460;2023-03-13T01:46:45;100048.28;;;6.24;94.08
50550;BME280;36505;52.512;13.460;2023-03-13T01:49:20;100051.13;;;6.29;94.18
50550;BME280;36505;52.512;13.460;2023-03-13T01:51:53;100042.63;;;6.25;93.99
50550;BME280;36505;52.512;13.460;2023-03-13T01:57:03;100037.78;;;6.27;94.00
50550;BME280;36505;52.512;13.460;2023-03-13T01:59:32;100029.38;;;6.29;93.93
50550;BME280;36505;52.512;13.460;2023-03-13T02:02:02;100030.81;;;6.31;93.23
50550;BME280;36505;52.512;13.460;2023-03-13T02:04:32;100024.19;;;6.27;93.46
50550;BME280;36505;52.512;13.460;2023-03-13T02:07:02;100021.22;;;6.29;93.67
50550;BME280;36505;52.512;13.460;2023-03-13T02:09:30;100031.03;;;6.30;93.29
50550;BME280;36505;52.512;13.460;2023-03-13T02:12:03;100025.59;;;6.30;93.39
50550;BME280;36505;52.512;13.460;2023-03-13T02:14:34;100012.00;;;6.30;93.49
50550;BME280;36505;52.512;13.460;2023-03-13T02:17:02;100003.38;;;6.33;93.27
50550;BME280;36505;52.512;13.460;2023-03-13T02:22:31;99996.28;;;6.32;93.01
50550;BME280;36505;52.512;13.460;2023-03-13T02:27:35;99984.09;;;6.23;92.86
50550;BME280;36505;52.512;13.460;2023-03-13T02:30:02;99999.47;;;6.29;92.70
50550;BME280;36505;52.512;13.460;2023-03-13T02:32:29;99991.31;;;6.29;92.97
50550;BME280;36505;52.512;13.460;2023-03-13T02:34:58;99990.25;;;6.30;93.18
50550;BME280;36505;52.512;13.460;2023-03-13T02:37:27;99991.09;;;6.30;93.12
50550;BME280;36505;52.512;13.460;2023-03-13T02:39:56;99979.38;;;6.30;92.86
50550;BME280;36505;52.512;13.460;2023-03-13T02:42:24;99980.31;;;6.35;92.88
50550;BME280;36505;52.512;13.460;2023-03-13T02:44:50;99977.97;;;6.39;92.69
50550;BME280;36505;52.512;13.460;2023-03-13T02:47:20;99970.88;;;6.38;92.61
50550;BME280;36505;52.512;13.460;2023-03-13T02:49:46;99972.16;;;6.35;92.93
50550;BME280;36505;52.512;13.460;2023-03-13T02:54:43;99955.50;;;6.32;93.07
50550;BME280;36505;52.512;13.460;2023-03-13T02:57:09;99955.03;;;6.35;92.88
50550;BME280;36505;52.512;13.460;2023-03-13T02:59:35;99956.34;;;6.32;92.83
50550;BME280;36505;52.512;13.460;2023-03-13T03:02:00;99941.09;;;6.31;92.66
50550;BME280;36505;52.512;13.460;2023-03-13T03:04:26;99946.53;;;6.31;93.00
50550;BME280;36505;52.512;13.460;2023-03-13T03:06:51;99933.97;;;6.30;92.92
50550;BME280;36505;52.512;13.460;2023-03-13T03:09:18;99931.75;;;6.27;92.90
50550;BME280;36505;52.512;13.460;2023-03-13T03:11:44;99928.53;;;6.30;92.86
50550;BME280;36505;52.512;13.460;2023-03-13T03:14:11;99926.66;;;6.31;93.05
50550;BME280;36505;52.512;13.460;2023-03-13T03:16:37;99920.75;;;6.34;92.86
50550;BME280;36505;52.512;13.460;2023-03-13T03:19:03;99921.81;;;6.33;92.82
50550;BME280;36505;52.512;13.460;2023-03-13T03:21:29;99914.72;;;6.32;93.33
50550;BME280;36505;52.512;13.460;2023-03-13T03:23:54;99909.50;;;6.30;92.99
50550;BME280;36505;52.512;13.460;2023-03-13T03:26:19;99911.91;;;6.27;93.11
50550;BME280;36505;52.512;13.460;2023-03-13T03:28:45;99916.16;;;6.34;93.11
50550;BME280;36505;52.512;13.460;2023-03-13T03:31:12;99909.28;;;6.32;92.98
50550;BME280;36505;52.512;13.460;2023-03-13T03:33:38;99916.72;;;6.37;93.25
50550;BME280;36505;52.512;13.460;2023-03-13T03:36:06;99913.78;;;6.38;93.09
50550;BME280;36505;52.512;13.460;2023-03-13T03:38:32;99902.28;;;6.36;93.02
50550;BME280;36505;52.512;13.460;2023-03-13T03:40:58;99904.56;;;6.39;93.07
50550;BME280;36505;52.512;13.460;2023-03-13T03:43:23;99900.19;;;6.38;93.33
50550;BME280;36505;52.512;13.460;2023-03-13T03:45:49;99890.72;;;6.41;93.53
50550;BME280;36505;52.512;13.460;2023-03-13T03:48:14;99894.84;;;6.43;93.45
50550;BME280;36505;52.512;13.460;2023-03-13T03:50:40;99892.72;;;6.45;93.50
50550;BME280;36505;52.512;13.460;2023-03-13T03:53:05;99886.81;;;6.48;93.48
50550;BME280;36505;52.512;13.460;2023-03-13T03:55:32;99887.63;;;6.49;93.49
50550;BME280;36505;52.512;13.460;2023-03-13T03:57:58;99878.91;;;6.47;93.68
50550;BME280;36505;52.512;13.460;2023-03-13T04:00:23;99881.63;;;6.47;93.96
50550;BME280;36505;52.512;13.460;2023-03-13T04:02:49;99877.56;;;6.49;93.72
50550;BME280;36505;52.512;13.460;2023-03-13T04:05:14;99865.63;;;6.50;93.67
50550;BME280;36505;52.512;13.460;2023-03-13T04:07:40;99860.09;;;6.45;93.91
50550;BME280;36505;52.512;13.460;2023-03-13T04:10:05;99854.06;;;6.43;93.83
50550;BME280;36505;52.512;13.460;2023-03-13T04:12:31;99851.94;;;6.45;93.90
50550;BME280;36505;52.512;13.460;2023-03-13T04:14:56;99847.09;;;6.47;93.75
50550;BME280;36505;52.512;13.460;2023-03-13T04:17:22;99852.25;;;6.49;93.90
50550;BME280;36505;52.512;13.460;2023-03-13T04:19:47;99848.03;;;6.53;93.72
50550;BME280;36505;52.512;13.460;2023-03-13T04:22:13;99838.19;;;6.52;93.79
50550;BME280;36505;52.512;13.460;2023-03-13T04:24:38;99838.44;;;6.50;93.82
50550;BME280;36505;52.512;13.460;2023-03-13T04:27:04;99837.72;;;6.55;93.75
50550;BME280;36505;52.512;13.460;2023-03-13T04:29:31;99840.19;;;6.56;93.65
50550;BME280;36505;52.512;13.460;2023-03-13T04:31:56;99826.25;;;6.53;93.22
50550;BME280;36505;52.512;13.460;2023-03-13T04:34:22;99824.69;;;6.57;93.63
50550;BME280;36505;52.512;13.460;2023-03-13T04:36:47;99823.88;;;6.56;93.67
50550;BME280;36505;52.512;13.460;2023-03-13T04:39:13;99815.72;;;6.56;93.64
50550;BME280;36505;52.512;13.460;2023-03-13T04:41:38;99810.13;;;6.63;93.39
50550;BME280;36505;52.512;13.460;2023-03-13T04:44:04;99811.47;;;6.60;92.96
50550;BME280;36505;52.512;13.460;2023-03-13T04:46:29;99809.31;;;6.62;92.95
50550;BME280;36505;52.512;13.460;2023-03-13T04:48:54;99808.84;;;6.65;93.37
50550;BME280;36505;52.512;13.460;2023-03-13T04:51:20;99801.28;;;6.67;93.16
50550;BME280;36505;52.512;13.460;2023-03-13T04:53:45;99790.84;;;6.64;93.19
50550;BME280;36505;52.512;13.460;2023-03-13T04:56:14;99792.50;;;6.65;93.01
50550;BME280;36505;52.512;13.460;2023-03-13T04:58:44;99787.06;;;6.65;93.31
50550;BME280;36505;52.512;13.460;2023-03-13T05:01:09;99779.50;;;6.67;93.11
50550;BME280;36505;52.512;13.460;2023-03-13T05:03:35;99783.88;;;6.68;93.26
50550;BME280;36505;52.512;13.460;2023-03-13T05:06:00;99770.75;;;6.65;93.20
50550;BME280;36505;52.512;13.460;2023-03-13T05:08:25;99771.66;;;6.71;92.71
50550;BME280;36505;52.512;13.460;2023-03-13T05:10:51;99756.16;;;6.71;92.71
50550;BME280;36505;52.512;13.460;2023-03-13T05:13:16;99752.63;;;6.71;93.00
50550;BME280;36505;52.512;13.460;2023-03-13T05:15:41;99742.81;;;6.70;93.01
50550;BME280;36505;52.512;13.460;2023-03-13T05:18:07;99737.47;;;6.75;92.97
50550;BME280;36505;52.512;13.460;2023-03-13T05:20:32;99732.50;;;6.72;92.95
50550;BME280;36505;52.512;13.460;2023-03-13T05:22:58;99733.56;;;6.71;93.20
50550;BME280;36505;52.512;13.460;2023-03-13T05:25:23;99725.25;;;6.78;93.13
50550;BME280;36505;52.512;13.460;2023-03-13T05:27:48;99724.94;;;6.74;93.55
50550;BME280;36505;52.512;13.460;2023-03-13T05:30:14;99721.16;;;6.75;93.34
50550;BME280;36505;52.512;13.460;2023-03-13T05:32:39;99718.16;;;6.77;93.61
50550;BME280;36505;52.512;13.460;2023-03-13T05:35:05;99715.81;;;6.80;93.55
50550;BME280;36505;52.512;13.460;2023-03-13T05:37:30;99704.41;;;6.83;93.49
50550;BME280;36505;52.512;13.460;2023-03-13T05:39:55;99703.03;;;6.81;93.78
50550;BME280;36505;52.512;13.460;2023-03-13T05:42:21;99693.69;;;6.77;94.25
50550;BME280;36505;52.512;13.460;2023-03-13T05:44:46;99695.09;;;6.79;94.52
50550;BME280;36505;52.512;13.460;2023-03-13T05:47:11;99691.06;;;6.82;94.91
50550;BME280;36505;52.512;13.460;2023-03-13T05:49:37;99672.50;;;6.79;95.22
50550;BME280;36505;52.512;13.460;2023-03-13T05:52:02;99672.84;;;6.82;95.22
50550;BME280;36505;52.512;13.460;2023-03-13T05:54:28;99671.19;;;6.81;95.15
50550;BME280;36505;52.512;13.460;2023-03-13T05:56:53;99662.94;;;6.76;95.52
50550;BME280;36505;52.512;13.460;2023-03-13T05:59:19;99653.94;;;6.75;95.73
50550;BME280;36505;52.512;13.460;2023-03-13T06:01:44;99657.00;;;6.79;95.84
50550;BME280;36505;52.512;13.460;2023-03-13T06:04:09;99655.19;;;6.85;96.34
50550;BME280;36505;52.512;13.460;2023-03-13T06:06:35;99649.75;;;6.85;96.18
50550;BME280;36505;52.512;13.460;2023-03-13T06:09:00;99651.09;;;6.82;96.40
50550;BME280;36505;52.512;13.460;2023-03-13T06:11:26;99648.69;;;6.86;96.44
50550;BME280;36505;52.512;13.460;2023-03-13T06:13:51;99634.75;;;6.82;96.55
50550;BME280;36505;52.512;13.460;2023-03-13T06:16:17;99645.38;;;6.84;96.43
50550;BME280;36505;52.512;13.460;2023-03-13T06:18:42;99643.72;;;6.83;96.48
50550;BME280;36505;52.512;13.460;2023-03-13T06:21:08;99641.09;;;6.88;96.37
50550;BME280;36505;52.512;13.460;2023-03-13T06:23:34;99628.06;;;6.90;96.19
50550;BME280;36505;52.512;13.460;2023-03-13T06:25:59;99623.78;;;6.94;96.04
50550;BME280;36505;52.512;13.460;2023-03-13T06:28:25;99615.63;;;6.94;96.02
50550;BME280;36505;52.512;13.460;2023-03-13T06:30:51;99615.38;;;6.95;96.01
50550;BME280;36505;52.512;13.460;2023-03-13T06:33:16;99607.47;;;6.94;96.10
50550;BME280;36505;52.512;13.460;2023-03-13T06:35:42;99604.16;;;6.92;96.32
50550;BME280;36505;52.512;13.460;2023-03-13T06:38:08;99592.78;;;6.95;96.38
50550;BME280;36505;52.512;13.460;2023-03-13T06:40:34;99585.94;;;6.92;96.42
50550;BME280;36505;52.512;13.460;2023-03-13T06:42:59;99577.75;;;6.92;96.38
50550;BME280;36505;52.512;13.460;2023-03-13T06:45:25;99571.00;;;6.95;96.55
50550;BME280;36505;52.512;13.460;2023-03-13T06:47:50;99569.44;;;6.99;96.79
50550;BME280;36505;52.512;13.460;2023-03-13T06:50:16;99561.31;;;7.04;96.77
50550;BME280;36505;52.512;13.460;2023-03-13T06:52:42;99558.69;;;7.09;96.45
50550;BME280;36505;52.512;13.460;2023-03-13T06:55:08;99558.59;;;7.04;96.77
50550;BME280;36505;52.512;13.460;2023-03-13T06:57:34;99549.13;;;7.06;97.06
50550;BME280;36505;52.512;13.460;2023-03-13T06:59:59;99538.25;;;7.06;96.88
50550;BME280;36505;52.512;13.460;2023-03-13T07:02:24;99537.16;;;7.07;97.07
50550;BME280;36505;52.512;13.460;2023-03-13T07:04:50;99527.00;;;7.03;96.98
50550;BME280;36505;52.512;13.460;2023-03-13T07:07:15;99524.38;;;7.08;97.28
50550;BME280;36505;52.512;13.460;2023-03-13T07:09:41;99525.03;;;7.15;97.38
50550;BME280;36505;52.512;13.460;2023-03-13T07:12:06;99520.59;;;7.09;97.44
50550;BME280;36505;52.512;13.460;2023-03-13T07:14:32;99521.72;;;7.13;97.35
50550;BME280;36505;52.512;13.460;2023-03-13T07:16:58;99515.97;;;7.09;97.63
50550;BME280;36505;52.512;13.460;2023-03-13T07:19:23;99538.63;;;7.15;97.64
50550;BME280;36505;52.512;13.460;2023-03-13T07:21:50;99531.84;;;7.18;97.82
50550;BME280;36505;52.512;13.460;2023-03-13T07:24:17;99533.25;;;7.20;97.95
50550;BME280;36505;52.512;13.460;2023-03-13T07:26:42;99514.78;;;7.22;97.63
50550;BME280;36505;52.512;13.460;2023-03-13T07:29:08;99513.94;;;7.22;97.91
50550;BME280;36505;52.512;13.460;2023-03-13T07:31:34;99510.66;;;7.20;97.99
50550;BME280;36505;52.512;13.460;2023-03-13T07:33:59;99515.66;;;7.28;98.23
50550;BME280;36505;52.512;13.460;2023-03-13T07:36:25;99512.50;;;7.36;99.09
50550;BME280;36505;52.512;13.460;2023-03-13T07:38:51;99513.88;;;7.38;99.36
50550;BME280;36505;52.512;13.460;2023-03-13T07:41:18;99494.38;;;7.46;99.49
50550;BME280;36505;52.512;13.460;2023-03-13T07:43:44;99498.50;;;7.49;99.75
50550;BME280;36505;52.512;13.460;2023-03-13T07:46:12;99490.63;;;7.52;99.38
50550;BME280;36505;52.512;13.460;2023-03-13T07:48:40;99489.31;;;7.55;99.16
50550;BME280;36505;52.512;13.460;2023-03-13T07:51:09;99481.75;;;7.62;99.77
50550;BME280;36505;52.512;13.460;2023-03-13T07:53:35;99489.69;;;7.64;98.95
50550;BME280;36505;52.512;13.460;2023-03-13T07:56:03;99472.84;;;7.72;99.78
50550;BME280;36505;52.512;13.460;2023-03-13T07:58:32;99464.19;;;7.75;99.40
50550;BME280;36505;52.512;13.460;2023-03-13T08:00:58;99465.09;;;7.85;98.84
50550;BME280;36505;52.512;13.460;2023-03-13T08:03:24;99459.34;;;7.82;98.73
50550;BME280;36505;52.512;13.460;2023-03-13T08:06:02;99461.00;;;7.83;98.68
50550;BME280;36505;52.512;13.460;2023-03-13T08:08:28;99462.91;;;7.82;98.71
50550;BME280;36505;52.512;13.460;2023-03-13T08:11:03;99439.00;;;7.89;99.06
50550;BME280;36505;52.512;13.460;2023-03-13T08:13:29;99451.22;;;7.87;98.69
50550;BME280;36505;52.512;13.460;2023-03-13T08:16:07;99428.03;;;7.84;98.70
50550;BME280;36505;52.512;13.460;2023-03-13T08:18:33;99442.97;;;7.77;98.81
50550;BME280;36505;52.512;13.460;2023-03-13T08:21:11;99444.31;;;7.79;99.42
50550;BME280;36505;52.512;13.460;2023-03-13T08:23:37;99431.28;;;7.81;99.96
50550;BME280;36505;52.512;13.460;2023-03-13T08:26:17;99425.53;;;7.78;100.00
50550;BME280;36505;52.512;13.460;2023-03-13T08:28:44;99432.38;;;7.85;100.00
50550;BME280;36505;52.512;13.460;2023-03-13T08:31:15;99432.97;;;7.87;100.00
50550;BME280;36505;52.512;13.460;2023-03-13T08:33:42;99420.19;;;7.93;100.00
50550;BME280;36505;52.512;13.460;2023-03-13T08:36:20;99418.28;;;7.93;100.00
50550;BME280;36505;52.512;13.460;2023-03-13T08:38:47;99423.00;;;7.98;100.00
50550;BME280;36505;52.512;13.460;2023-03-13T08:41:15;99408.47;;;7.92;100.00
50550;BME280;36505;52.512;13.460;2023-03-13T08:43:42;99400.59;;;7.96;100.00
50550;BME280;36505;52.512;13.460;2023-03-13T08:46:07;99405.03;;;8.02;100.00
50550;BME280;36505;52.512;13.460;2023-03-13T08:48:33;99412.38;;;8.02;100.00
50550;BME280;36505;52.512;13.460;2023-03-13T08:51:07;99410.47;;;8.02;100.00
50550;BME280;36505;52.512;13.460;2023-03-13T08:53:33;99400.13;;;8.04;100.00
50550;BME280;36505;52.512;13.460;2023-03-13T08:55:59;99384.06;;;8.08;100.00
50550;BME280;36505;52.512;13.460;2023-03-13T08:58:25;99397.19;;;8.11;100.00
50550;BME280;36505;52.512;13.460;2023-03-13T09:00:51;99389.28;;;8.14;100.00
50550;BME280;36505;52.512;13.460;2023-03-13T09:03:16;99382.75;;;8.15;100.00
50550;BME280;36505;52.512;13.460;2023-03-13T09:05:42;99386.06;;;8.17;100.00
50550;BME280;36505;52.512;13.460;2023-03-13T09:08:07;99375.66;;;8.14;100.00
50550;BME280;36505;52.512;13.460;2023-03-13T09:10:33;99375.66;;;8.14;100.00
50550;BME280;36505;52.512;13.460;2023-03-13T09:12:59;99368.91;;;8.22;100.00
50550;BME280;36505;52.512;13.460;2023-03-13T09:15:25;99366.19;;;8.22;100.00
50550;BME280;36505;52.512;13.460;2023-03-13T09:17:50;99367.84;;;8.28;100.00
50550;BME280;36505;52.512;13.460;2023-03-13T09:20:15;99356.13;;;8.27;100.00
50550;BME280;36505;52.512;13.460;2023-03-13T09:22:43;99358.66;;;8.34;100.00
50550;BME280;36505;52.512;13.460;2023-03-13T09:25:09;99354.84;;;8.35;100.00
50550;BME280;36505;52.512;13.460;2023-03-13T09:27:34;99363.34;;;8.44;100.00
50550;BME280;36505;52.512;13.460;2023-03-13T09:30:00;99362.28;;;8.50;100.00
50550;BME280;36505;52.512;13.460;2023-03-13T09:32:25;99349.47;;;8.50;100.00
50550;BME280;36505;52.512;13.460;2023-03-13T09:34:50;99365.88;;;8.55;100.00
50550;BME280;36505;52.512;13.460;2023-03-13T09:37:16;99362.63;;;8.58;100.00
50550;BME280;36505;52.512;13.460;2023-03-13T09:39:41;99365.06;;;8.60;99.97
50550;BME280;36505;52.512;13.460;2023-03-13T09:42:16;99360.72;;;8.59;99.92
50550;BME280;36505;52.512;13.460;2023-03-13T09:45:05;99363.22;;;8.65;99.92
50550;BME280;36505;52.512;13.460;2023-03-13T09:47:41;99356.13;;;8.69;99.69
50550;BME280;36505;52.512;13.460;2023-03-13T09:50:17;99359.41;;;8.71;99.68
50550;BME280;36505;52.512;13.460;2023-03-13T09:52:48;99337.84;;;8.75;100.00
50550;BME280;36505;52.512;13.460;2023-03-13T09:55:33;99338.97;;;8.79;100.00
50550;BME280;36505;52.512;13.460;2023-03-13T10:00:47;99336.81;;;8.86;99.63
50550;BME280;36505;52.512;13.460;2023-03-13T10:05:56;99333.28;;;8.91;99.50
50550;BME280;36505;52.512;13.460;2023-03-13T10:08:35;99333.53;;;8.89;99.42
50550;BME280;36505;52.512;13.460;2023-03-13T10:11:26;99340.97;;;8.99;99.15
50550;BME280;36505;52.512;13.460;2023-03-13T10:19:27;99330.88;;;9.09;98.83
50550;BME280;36505;52.512;13.460;2023-03-13T10:21:56;99330.63;;;9.16;99.05
50550;BME280;36505;52.512;13.460;2023-03-13T10:25:07;99327.38;;;9.24;99.19
50550;BME280;36505;52.512;13.460;2023-03-13T10:27:49;99318.66;;;9.27;98.97
50550;BME280;36505;52.512;13.460;2023-03-13T10:30:27;99328.50;;;9.33;98.79
50550;BME280;36505;52.512;13.460;2023-03-13T10:32:57;99316.75;;;9.38;98.24
50550;BME280;36505;52.512;13.460;2023-03-13T10:35:26;99314.81;;;9.48;97.91
50550;BME280;36505;52.512;13.460;2023-03-13T10:38:10;99306.91;;;9.62;97.33
50550;BME280;36505;52.512;13.460;2023-03-13T10:40:36;99298.19;;;9.60;97.11
50550;BME280;36505;52.512;13.460;2023-03-13T10:43:11;99307.47;;;9.74;97.22
50550;BME280;36505;52.512;13.460;2023-03-13T10:45:37;99298.16;;;9.85;97.54
50550;BME280;36505;52.512;13.460;2023-03-13T10:50:41;99295.13;;;10.12;95.83
50550;BME280;36505;52.512;13.460;2023-03-13T10:55:45;99291.56;;;10.37;94.61
50550;BME280;36505;52.512;13.460;2023-03-13T10:58:19;99276.16;;;10.51;93.74
50550;BME280;36505;52.512;13.460;2023-03-13T11:00:47;99276.06;;;10.72;93.39
50550;BME280;36505;52.512;13.460;2023-03-13T11:03:17;99283.66;;;10.90;92.81
50550;BME280;36505;52.512;13.460;2023-03-13T11:05:52;99276.47;;;10.99;91.41
50550;BME280;36505;52.512;13.460;2023-03-13T11:08:43;99274.75;;;11.13;90.96
50550;BME280;36505;52.512;13.460;2023-03-13T11:11:17;99265.63;;;11.28;90.35
50550;BME280;36505;52.512;13.460;2023-03-13T11:13:44;99257.06;;;11.39;90.03
50550;BME280;36505;52.512;13.460;2023-03-13T11:16:22;99249.84;;;11.48;88.73
50550;BME280;36505;52.512;13.460;2023-03-13T11:24:41;99239.88;;;12.20;86.17
50550;BME280;36505;52.512;13.460;2023-03-13T11:33:03;99229.59;;;12.74;83.03
50550;BME280;36505;52.512;13.460;2023-03-13T11:35:39;99236.00;;;12.69;83.30
50550;BME280;36505;52.512;13.460;2023-03-13T11:49:42;99235.09;;;12.92;82.41
50550;BME280;36505;52.512;13.460;2023-03-13T11:52:29;99222.34;;;13.01;81.94
50550;BME280;36505;52.512;13.460;2023-03-13T12:05:18;99190.63;;;12.72;81.22
50550;BME280;36505;52.512;13.460;2023-03-13T12:10:19;99221.38;;;12.92;81.80
50550;BME280;36505;52.512;13.460;2023-03-13T12:12:57;99221.16;;;12.89;81.88
50550;BME280;36505;52.512;13.460;2023-03-13T12:15:28;99210.28;;;12.97;81.93
50550;BME280;36505;52.512;13.460;2023-03-13T12:18:17;99206.50;;;13.12;81.66
50550;BME280;36505;52.512;13.460;2023-03-13T12:21:02;99206.84;;;13.29;81.16
50550;BME280;36505;52.512;13.460;2023-03-13T12:26:11;99214.50;;;13.46;80.31
50550;BME280;36505;52.512;13.460;2023-03-13T12:28:42;99197.34;;;13.54;80.35
50550;BME280;36505;52.512;13.460;2023-03-13T12:31:30;99208.06;;;13.69;79.74
50550;BME280;36505;52.512;13.460;2023-03-13T12:34:38;99193.28;;;13.65;79.50
50550;BME280;36505;52.512;13.460;2023-03-13T12:39:44;99191.09;;;13.95;78.84
50550;BME280;36505;52.512;13.460;2023-03-13T12:42:35;99192.63;;;14.01;78.63
50550;BME280;36505;52.512;13.460;2023-03-13T12:45:17;99189.88;;;14.01;78.34
50550;BME280;36505;52.512;13.460;2023-03-13T13:00:02;99164.69;;;14.35;76.29
50550;BME280;36505;52.512;13.460;2023-03-13T13:02:31;99159.50;;;14.33;76.15
50550;BME280;36505;52.512;13.460;2023-03-13T13:04:59;99157.66;;;14.29;76.30
50550;BME280;36505;52.512;13.460;2023-03-13T13:07:32;99158.38;;;14.34;76.67
50550;BME280;36505;52.512;13.460;2023-03-13T13:12:46;99146.47;;;14.52;75.88
50550;BME280;36505;52.512;13.460;2023-03-13T13:15:31;99150.59;;;14.63;75.32
50550;BME280;36505;52.512;13.460;2023-03-13T13:25:51;99149.88;;;14.72;74.01
50550;BME280;36505;52.512;13.460;2023-03-13T13:30:52;99135.06;;;14.68;73.93
50550;BME280;36505;52.512;13.460;2023-03-13T13:38:34;99126.13;;;14.62;74.50
50550;BME280;36505;52.512;13.460;2023-03-13T13:43:32;99126.34;;;14.66;73.65
50550;BME280;36505;52.512;13.460;2023-03-13T13:46:04;99117.44;;;14.69;73.66
50550;BME280;36505;52.512;13.460;2023-03-13T13:48:37;99126.50;;;14.69;73.55
50550;BME280;36505;52.512;13.460;2023-03-13T13:56:41;99120.69;;;14.71;72.82
50550;BME280;36505;52.512;13.460;2023-03-13T14:01:46;99123.97;;;14.73;72.59
50550;BME280;36505;52.512;13.460;2023-03-13T14:04:32;99121.09;;;14.78;72.68
50550;BME280;36505;52.512;13.460;2023-03-13T14:07:00;99124.66;;;14.78;73.00
50550;BME280;36505;52.512;13.460;2023-03-13T14:09:39;99116.25;;;14.83;72.95
50550;BME280;36505;52.512;13.460;2023-03-13T14:15:14;99118.16;;;14.96;73.23
50550;BME280;36505;52.512;13.460;2023-03-13T14:20:19;99116.59;;;15.04;72.98
50550;BME280;36505;52.512;13.460;2023-03-13T14:22:48;99107.50;;;15.03;72.53
50550;BME280;36505;52.512;13.460;2023-03-13T14:25:13;99119.34;;;15.04;72.66
50550;BME280;36505;52.512;13.460;2023-03-13T14:27:43;99116.34;;;15.14;72.22
50550;BME280;36505;52.512;13.460;2023-03-13T14:30:10;99113.59;;;15.14;71.95
50550;BME280;36505;52.512;13.460;2023-03-13T14:32:37;99112.56;;;15.10;71.40
50550;BME280;36505;52.512;13.460;2023-03-13T14:35:11;99114.88;;;15.17;71.53
50550;BME280;36505;52.512;13.460;2023-03-13T14:37:46;99120.09;;;15.18;71.35
50550;BME280;36505;52.512;13.460;2023-03-13T14:40:24;99111.31;;;15.16;71.46
50550;BME280;36505;52.512;13.460;2023-03-13T14:43:00;99114.41;;;15.15;71.44
50550;BME280;36505;52.512;13.460;2023-03-13T14:50:27;99091.09;;;14.98;71.73
50550;BME280;36505;52.512;13.460;2023-03-13T14:53:02;99092.22;;;14.97;72.06
50550;BME280;36505;52.512;13.460;2023-03-13T14:55:37;99102.25;;;14.93;72.32
50550;BME280;36505;52.512;13.460;2023-03-13T15:00:52;99097.56;;;14.94;71.90
50550;BME280;36505;52.512;13.460;2023-03-13T15:03:32;99087.44;;;14.89;72.73
50550;BME280;36505;52.512;13.460;2023-03-13T15:06:16;99080.50;;;14.92;72.38
50550;BME280;36505;52.512;13.460;2023-03-13T15:09:09;99078.56;;;14.92;72.20